createdAt,value
2022-08-09T00:01:43.210Z,2.40
2022-08-09T00:04:25.180Z,2.20
2022-08-09T00:07:10.439Z,2.70
2022-08-09T00:09:39.504Z,2.87
2022-08-09T00:12:22.422Z,2.63
2022-08-09T00:14:56.747Z,2.90
2022-08-09T00:18:07.696Z,3.10
2022-08-09T00:20:15.329Z,2.47
2022-08-09T00:22:44.958Z,2.60
2022-08-09T00:25:15.790Z,2.90
2022-08-09T00:27:53.371Z,2.57
2022-08-09T00:30:26.037Z,2.40
2022-08-09T00:32:55.459Z,2.97
2022-08-09T00:35:24.005Z,2.80
2022-08-09T00:37:52.369Z,2.87
2022-08-09T00:40:22.469Z,2.57
2022-08-09T00:44:14.339Z,3.00
2022-08-09T00:45:53.790Z,2.60
2022-08-09T00:48:22.518Z,2.90
2022-08-09T00:50:52.407Z,2.90
2022-08-09T00:53:24.358Z,2.70
2022-08-09T00:56:05.049Z,2.70
2022-08-09T00:58:36.765Z,2.83
2022-08-09T01:01:15.868Z,2.87
2022-08-09T01:03:54.964Z,3.03
2022-08-09T01:06:54.429Z,2.53
2022-08-09T01:09:36.744Z,2.80
2022-08-09T01:12:14.342Z,3.07
2022-08-09T01:14:53.050Z,3.00
2022-08-09T01:17:30.557Z,2.63
2022-08-09T01:20:06.490Z,2.57
2022-08-09T01:22:58.764Z,2.80
2022-08-09T01:25:58.491Z,2.80
2022-08-09T01:28:28.715Z,2.67
2022-08-09T01:31:02.366Z,2.63
2022-08-09T01:33:41.200Z,2.70
2022-08-09T01:36:15.138Z,3.27
2022-08-09T01:38:48.895Z,2.70
2022-08-09T01:41:25.954Z,2.60
2022-08-09T01:43:59.890Z,3.00
2022-08-09T01:46:32.458Z,2.93
2022-08-09T01:49:10.215Z,3.10
2022-08-09T01:51:44.615Z,2.77
2022-08-09T01:54:25.366Z,2.70
2022-08-09T01:56:58.444Z,2.90
2022-08-09T01:59:50.907Z,2.97
2022-08-09T02:02:30.125Z,2.90
2022-08-09T02:05:05.581Z,2.67
2022-08-09T02:08:35.228Z,2.80
2022-08-09T02:10:39.710Z,3.37
2022-08-09T02:13:13.495Z,2.97
2022-08-09T02:15:48.929Z,3.07
2022-08-09T02:18:20.986Z,3.07
2022-08-09T02:20:56.437Z,2.70
2022-08-09T02:23:43.757Z,2.80
2022-08-09T02:26:24.685Z,2.90
2022-08-09T02:28:59.513Z,2.73
2022-08-09T02:31:35.431Z,2.67
2022-08-09T02:34:38.638Z,2.47
2022-08-09T02:37:06.772Z,2.87
2022-08-09T02:39:42.770Z,2.50
2022-08-09T02:42:19.699Z,2.60
2022-08-09T02:44:58.941Z,2.70
2022-08-09T02:47:34.016Z,2.57
2022-08-09T02:50:26.916Z,2.80
2022-08-09T02:53:01.205Z,2.60
2022-08-09T02:55:46.550Z,2.30
2022-08-09T02:58:32.548Z,2.57
2022-08-09T03:01:10.833Z,2.73
2022-08-09T03:04:17.001Z,2.60
2022-08-09T03:06:31.893Z,2.93
2022-08-09T03:09:03.233Z,2.60
2022-08-09T03:12:06.114Z,2.57
2022-08-09T03:14:28.200Z,2.53
2022-08-09T03:16:58.284Z,2.50
2022-08-09T03:19:52.299Z,2.60
2022-08-09T03:22:30.131Z,2.67
2022-08-09T03:25:26.775Z,2.70
2022-08-09T03:27:52.166Z,2.80
2022-08-09T03:30:29.240Z,3.07
2022-08-09T03:33:11.059Z,3.13
2022-08-09T03:36:12.584Z,2.80
2022-08-09T03:38:41.769Z,2.60
2022-08-09T03:41:14.832Z,2.77
2022-08-09T03:44:03.078Z,2.57
2022-08-09T03:46:33.807Z,2.40
2022-08-09T03:49:08.277Z,2.63
2022-08-09T03:51:55.267Z,2.53
2022-08-09T03:54:31.154Z,2.60
2022-08-09T03:57:04.488Z,2.70
2022-08-09T03:59:52.928Z,2.53
2022-08-09T04:02:26.911Z,2.03
2022-08-09T04:04:58.636Z,2.17
2022-08-09T04:07:47.508Z,2.40
2022-08-09T04:10:20.986Z,2.20
2022-08-09T04:13:01.336Z,1.93
2022-08-09T04:16:17.359Z,2.10
2022-08-09T04:18:21.889Z,2.00
2022-08-09T04:20:51.472Z,2.40
2022-08-09T04:23:23.496Z,2.40
2022-08-09T04:25:53.933Z,2.40
2022-08-09T04:28:33.102Z,2.63
2022-08-09T04:31:09.548Z,2.50
2022-08-09T04:33:47.229Z,2.60
2022-08-09T04:36:28.038Z,2.37
2022-08-09T04:39:00.604Z,2.03
2022-08-09T04:41:32.755Z,2.27
2022-08-09T04:44:06.397Z,2.40
2022-08-09T04:46:58.193Z,2.53
2022-08-09T04:49:52.295Z,2.20
2022-08-09T04:52:26.082Z,2.40
2022-08-09T04:55:04.226Z,2.47
2022-08-09T04:57:58.401Z,2.50
2022-08-09T05:00:31.777Z,2.53
2022-08-09T05:03:04.522Z,2.50
2022-08-09T05:06:04.472Z,2.60
2022-08-09T05:08:35.545Z,2.77
2022-08-09T05:11:07.691Z,2.57
2022-08-09T05:13:38.732Z,2.33
2022-08-09T05:16:08.959Z,2.50
2022-08-09T05:18:57.362Z,2.60
2022-08-09T05:21:30.538Z,2.40
2022-08-09T05:24:06.760Z,2.73
2022-08-09T05:26:45.656Z,3.03
2022-08-09T05:29:21.183Z,3.10
2022-08-09T05:31:57.462Z,2.97
2022-08-09T05:34:30.578Z,3.03
2022-08-09T05:37:02.468Z,2.70
2022-08-09T05:39:36.454Z,2.60
2022-08-09T05:42:17.273Z,3.30
2022-08-09T05:45:02.360Z,3.13
2022-08-09T05:47:33.270Z,3.17
2022-08-09T05:50:30.150Z,3.13
2022-08-09T05:52:53.452Z,2.90
2022-08-09T05:55:24.077Z,2.77
2022-08-09T05:57:56.475Z,2.93
2022-08-09T06:00:26.575Z,3.27
2022-08-09T06:02:57.989Z,3.07
2022-08-09T06:05:49.766Z,3.23
2022-08-09T06:08:19.618Z,3.40
2022-08-09T06:10:53.384Z,3.03
2022-08-09T06:13:23.651Z,3.00
2022-08-09T06:15:53.711Z,2.80
2022-08-09T06:18:24.013Z,2.90
2022-08-09T06:20:57.107Z,3.37
2022-08-09T06:23:55.197Z,2.80
2022-08-09T06:26:21.121Z,2.67
2022-08-09T06:29:00.190Z,2.50
2022-08-09T06:31:30.697Z,2.77
2022-08-09T06:33:59.974Z,2.50
2022-08-09T06:36:30.002Z,2.63
2022-08-09T06:38:58.715Z,2.47
2022-08-09T06:42:01.184Z,2.97
2022-08-09T06:44:20.542Z,1.73
2022-08-09T06:46:55.369Z,3.00
2022-08-09T06:49:45.163Z,2.13
2022-08-09T06:52:15.899Z,2.63
2022-08-09T06:54:44.685Z,2.03
2022-08-09T06:57:13.364Z,2.43
2022-08-09T07:00:52.251Z,2.17
2022-08-09T07:02:32.417Z,2.13
2022-08-09T07:05:01.946Z,2.00
2022-08-09T07:08:00.932Z,2.10
2022-08-09T07:10:29.402Z,1.80
2022-08-09T07:12:58.384Z,2.20
2022-08-09T07:15:54.103Z,1.70
2022-08-09T07:18:17.329Z,1.77
2022-08-09T07:20:47.778Z,2.07
2022-08-09T07:23:18.114Z,2.03
2022-08-09T07:25:52.522Z,2.00
2022-08-09T07:28:34.684Z,1.77
2022-08-09T07:31:06.127Z,2.00
2022-08-09T07:33:53.011Z,2.10
2022-08-09T07:36:23.492Z,1.93
2022-08-09T07:39:00.574Z,2.10
2022-08-09T07:41:32.917Z,1.83
2022-08-09T07:44:07.262Z,1.67
2022-08-09T07:46:36.969Z,2.17
2022-08-09T07:49:08.323Z,1.63
2022-08-09T07:52:05.448Z,1.90
2022-08-09T07:54:32.366Z,1.80
2022-08-09T07:57:00.842Z,1.70
2022-08-09T07:59:45.466Z,1.63
2022-08-09T08:02:19.942Z,1.80
2022-08-09T08:04:49.422Z,1.80
2022-08-09T08:08:42.468Z,1.80
2022-08-09T08:10:11.715Z,1.60
2022-08-09T08:12:45.120Z,1.67
2022-08-09T08:15:17.197Z,1.73
2022-08-09T08:17:54.804Z,1.60
2022-08-09T08:20:28.724Z,1.90
2022-08-09T08:23:01.452Z,1.43
2022-08-09T08:25:44.650Z,1.90
2022-08-09T08:28:15.507Z,1.80
2022-08-09T08:30:47.656Z,1.77
2022-08-09T08:33:22.881Z,1.50
2022-08-09T08:36:00.286Z,1.70
2022-08-09T08:38:29.901Z,1.55
2022-08-09T08:40:59.653Z,1.45
2022-08-09T08:43:28.445Z,1.67
2022-08-09T08:46:24.876Z,1.50
2022-08-09T08:48:53.644Z,1.80
2022-08-09T08:51:23.296Z,1.73
2022-08-09T08:54:04.287Z,2.00
2022-08-09T08:56:37.629Z,1.42
2022-08-09T08:59:19.320Z,1.50
2022-08-09T09:01:52.139Z,1.70
2022-08-09T09:04:27.670Z,1.80
2022-08-09T09:06:59.821Z,1.00
2022-08-09T09:09:41.183Z,1.35
2022-08-09T09:12:21.255Z,1.73
2022-08-09T09:14:53.038Z,1.63
2022-08-09T09:17:21.665Z,1.55
2022-08-09T09:19:52.224Z,1.20
2022-08-09T09:22:26.828Z,1.55
2022-08-09T09:26:01.083Z,1.27
2022-08-09T09:28:05.566Z,1.75
2022-08-09T09:30:40.660Z,1.30
2022-08-09T09:33:15.549Z,1.25
2022-08-09T09:36:02.805Z,1.50
2022-08-09T09:38:47.900Z,1.42
2022-08-09T09:41:49.280Z,1.33
2022-08-09T09:44:27.846Z,1.20
2022-08-09T09:47:07.588Z,1.20
2022-08-09T09:49:56.237Z,1.42
2022-08-09T09:52:36.376Z,1.70
2022-08-09T09:55:27.818Z,1.20
2022-08-09T09:58:19.103Z,1.45
2022-08-09T10:00:52.794Z,1.35
2022-08-09T10:03:56.245Z,1.30
2022-08-09T10:06:27.662Z,1.33
2022-08-09T10:09:11.693Z,1.40
2022-08-09T10:12:12.020Z,1.38
2022-08-09T10:14:47.830Z,1.30
2022-08-09T10:17:55.064Z,1.25
2022-08-09T10:20:27.272Z,1.38
2022-08-09T10:23:21.788Z,1.63
2022-08-09T10:26:08.055Z,1.20
2022-08-09T10:28:41.860Z,1.38
2022-08-09T10:34:11.033Z,1.50
2022-08-09T10:36:56.985Z,1.63
2022-08-09T10:39:27.047Z,1.42
2022-08-09T10:41:58.485Z,1.20
2022-08-09T10:44:30.510Z,1.52
2022-08-09T10:48:16.592Z,1.45
2022-08-09T10:50:30.720Z,1.27
2022-08-09T10:53:10.056Z,1.30
2022-08-09T10:55:58.324Z,1.27
2022-08-09T10:58:34.983Z,1.33
2022-08-09T11:03:05.668Z,1.20
2022-08-09T11:04:19.699Z,1.30
2022-08-09T11:07:57.749Z,1.30
2022-08-09T11:10:18.327Z,1.17
2022-08-09T11:13:21.728Z,1.27
2022-08-09T11:16:40.886Z,1.33
2022-08-09T11:19:11.420Z,1.10
2022-08-09T11:22:16.571Z,1.00
2022-08-09T11:25:10.206Z,1.55
2022-08-09T11:28:02.357Z,1.00
2022-08-09T11:30:36.514Z,1.20
2022-08-09T11:33:13.091Z,1.27
2022-08-09T11:35:50.168Z,1.55
2022-08-09T11:38:32.721Z,1.10
2022-08-09T11:41:06.391Z,1.00
2022-08-09T11:43:44.443Z,1.00
2022-08-09T11:46:13.312Z,1.10
2022-08-09T11:48:59.015Z,1.35
2022-08-09T11:53:02.201Z,1.23
2022-08-09T11:54:28.634Z,1.10
2022-08-09T11:58:00.382Z,1.25
2022-08-09T12:00:30.966Z,1.00
2022-08-09T12:03:31.812Z,1.30
2022-08-09T12:05:54.997Z,1.30
2022-08-09T12:08:25.173Z,1.30
2022-08-09T12:10:56.229Z,1.20
2022-08-09T12:14:08.351Z,1.30
2022-08-09T12:16:37.862Z,1.10
2022-08-09T12:19:11.390Z,1.23
2022-08-09T12:21:50.643Z,1.38
2022-08-09T12:24:23.904Z,1.50
2022-08-09T12:29:11.080Z,1.25
2022-08-09T12:30:00.121Z,1.20
2022-08-09T12:32:48.468Z,1.35
2022-08-09T12:35:21.726Z,1.30
2022-08-09T12:37:53.824Z,1.27
2022-08-09T12:40:26.867Z,1.20
2022-08-09T12:42:56.448Z,1.25
2022-08-09T12:45:32.422Z,0.95
2022-08-09T12:48:04.979Z,1.63
2022-08-09T12:50:36.196Z,1.20
2022-08-09T12:53:17.660Z,1.63
2022-08-09T12:56:13.814Z,1.33
2022-08-09T12:58:43.005Z,1.20
2022-08-09T13:01:26.595Z,1.50
2022-08-09T13:03:59.820Z,1.38
2022-08-09T13:06:33.910Z,1.20
2022-08-09T13:09:10.432Z,1.20
2022-08-09T13:11:43.932Z,1.25
2022-08-09T13:14:42.958Z,1.20
2022-08-09T13:17:08.397Z,1.20
2022-08-09T13:20:10.451Z,1.45
2022-08-09T13:22:45.536Z,1.15
2022-08-09T13:25:18.578Z,1.38
2022-08-09T13:27:54.671Z,1.42
2022-08-09T13:30:50.129Z,1.13
2022-08-09T13:33:53.086Z,1.20
2022-08-09T13:36:38.818Z,1.48
2022-08-09T13:39:31.078Z,1.30
2022-08-09T13:42:00.997Z,1.50
2022-08-09T13:44:30.808Z,1.20
2022-08-09T13:47:29.828Z,1.40
2022-08-09T13:49:57.237Z,1.23
2022-08-09T13:52:30.302Z,1.20
2022-08-09T13:55:04.403Z,1.25
2022-08-09T13:57:39.757Z,1.80
2022-08-09T14:00:13.903Z,1.00
2022-08-09T14:03:02.292Z,1.40
2022-08-09T14:05:58.732Z,1.15
2022-08-09T14:08:23.393Z,1.33
2022-08-09T14:10:53.294Z,1.48
2022-08-09T14:14:15.286Z,1.40
2022-08-09T14:16:17.249Z,1.88
2022-08-09T14:18:50.614Z,1.08
2022-08-09T14:21:23.262Z,1.50
2022-08-09T14:23:56.529Z,1.52
2022-08-09T14:26:31.783Z,1.20
2022-08-09T14:29:08.080Z,1.10
2022-08-09T14:31:55.470Z,1.30
2022-08-09T14:34:30.990Z,1.40
2022-08-09T14:37:07.232Z,1.73
2022-08-09T14:39:45.883Z,1.10
2022-08-09T14:42:30.922Z,1.60
2022-08-09T14:46:55.762Z,1.45
2022-08-09T14:47:58.284Z,1.40
2022-08-09T14:50:30.633Z,1.13
2022-08-09T14:53:00.298Z,1.17
2022-08-09T14:55:31.926Z,1.50
2022-08-09T14:58:03.528Z,1.50
2022-08-09T15:00:36.362Z,1.10
2022-08-09T15:03:07.459Z,1.30
2022-08-09T15:05:38.857Z,1.42
2022-08-09T15:08:10.385Z,1.20
2022-08-09T15:10:39.879Z,1.30
2022-08-09T15:13:08.660Z,1.50
2022-08-09T15:15:39.769Z,1.42
2022-08-09T15:18:14.522Z,1.35
2022-08-09T15:21:54.616Z,1.45
2022-08-09T15:24:02.788Z,1.17
2022-08-09T15:26:31.420Z,1.65
2022-08-09T15:29:04.785Z,1.60
2022-08-09T15:31:41.070Z,1.35
2022-08-09T15:34:31.680Z,1.52
2022-08-09T15:37:04.224Z,1.20
2022-08-09T15:39:43.985Z,1.58
2022-08-09T15:42:21.940Z,1.92
2022-08-09T15:44:51.061Z,1.67
2022-08-09T15:47:22.609Z,1.08
2022-08-09T15:50:05.375Z,1.73
2022-08-09T15:52:36.183Z,1.50
2022-08-09T15:55:07.237Z,1.30
2022-08-09T15:57:44.423Z,1.27
2022-08-09T16:00:25.960Z,1.20
2022-08-09T16:02:57.182Z,1.30
2022-08-09T16:05:47.540Z,1.38
2022-08-09T16:08:30.527Z,1.20
2022-08-09T16:11:01.955Z,1.95
2022-08-09T16:14:03.883Z,1.13
2022-08-09T16:16:19.726Z,1.85
2022-08-09T16:18:49.899Z,1.30
2022-08-09T16:21:25.660Z,1.58
2022-08-09T16:23:58.540Z,1.50
2022-08-09T16:26:35.485Z,1.58
2022-08-09T16:29:11.307Z,1.35
2022-08-09T16:32:17.662Z,1.20
2022-08-09T16:34:55.464Z,1.48
2022-08-09T16:37:54.470Z,1.10
2022-08-09T16:40:13.692Z,1.20
2022-08-09T16:42:45.569Z,1.52
2022-08-09T16:45:18.585Z,1.30
2022-08-09T16:48:38.470Z,1.40
2022-08-09T16:50:39.097Z,1.70
2022-08-09T16:53:08.884Z,2.67
2022-08-09T16:55:58.317Z,1.33
2022-08-09T16:58:26.419Z,1.23
2022-08-09T17:00:55.168Z,1.77
2022-08-09T17:03:23.763Z,1.30
2022-08-09T17:06:06.718Z,1.30
2022-08-09T17:08:44.381Z,1.60
2022-08-09T17:11:32.846Z,1.30
2022-08-09T17:14:25.447Z,1.05
2022-08-09T17:16:55.387Z,1.60
2022-08-09T17:19:23.849Z,2.03
2022-08-09T17:21:57.054Z,1.48
2022-08-09T17:24:30.549Z,1.20
2022-08-09T17:26:59.539Z,1.60
2022-08-09T17:29:31.912Z,1.50
2022-08-09T17:32:07.137Z,1.10
2022-08-09T17:35:07.827Z,1.25
2022-08-09T17:37:25.453Z,1.10
2022-08-09T17:39:58.331Z,1.67
2022-08-09T17:42:55.773Z,1.20
2022-08-09T17:45:15.870Z,1.75
2022-08-09T17:48:02.720Z,1.42
2022-08-09T17:50:36.857Z,1.50
2022-08-09T17:53:19.511Z,1.75
2022-08-09T17:55:55.743Z,1.40
2022-08-09T17:58:27.931Z,1.43
2022-08-09T18:00:58.379Z,1.77
2022-08-09T18:03:30.357Z,1.40
2022-08-09T18:06:01.035Z,1.70
2022-08-09T18:08:31.739Z,1.43
2022-08-09T18:11:01.611Z,1.20
2022-08-09T18:13:43.094Z,1.50
2022-08-09T18:16:30.196Z,1.40
2022-08-09T18:19:03.871Z,1.40
2022-08-09T18:21:41.242Z,1.50
2022-08-09T18:24:14.592Z,1.30
2022-08-09T18:26:46.941Z,1.40
2022-08-09T18:30:40.347Z,1.33
2022-08-09T18:32:05.872Z,1.40
2022-08-09T18:34:35.577Z,1.47
2022-08-09T18:37:04.284Z,1.70
2022-08-09T18:39:45.958Z,1.40
2022-08-09T18:42:17.312Z,1.30
2022-08-09T18:44:45.673Z,1.53
2022-08-09T18:47:16.685Z,1.20
2022-08-09T18:49:48.056Z,1.17
2022-08-09T18:52:24.811Z,1.70
2022-08-09T18:55:05.149Z,1.20
2022-08-09T18:57:43.151Z,1.50
2022-08-09T19:00:16.760Z,1.50
2022-08-09T19:02:51.388Z,1.40
2022-08-09T19:05:49.005Z,1.53
2022-08-09T19:08:18.417Z,1.37
2022-08-09T19:10:50.849Z,1.43
2022-08-09T19:13:38.603Z,1.50
2022-08-09T19:16:13.019Z,1.40
2022-08-09T19:18:45.399Z,1.30
2022-08-09T19:21:14.576Z,1.20
2022-08-09T19:24:37.397Z,1.37
2022-08-09T19:26:34.986Z,1.50
2022-08-09T19:29:15.053Z,1.40
2022-08-09T19:31:49.388Z,1.40
2022-08-09T19:34:22.725Z,1.30
2022-08-09T19:36:52.606Z,1.70
2022-08-09T19:39:29.264Z,2.10
2022-08-09T19:42:14.884Z,2.60
2022-08-09T19:44:50.733Z,1.73
2022-08-09T19:47:23.480Z,1.40
2022-08-09T19:50:08.285Z,1.60
2022-08-09T19:52:51.341Z,1.90
2022-08-09T19:55:30.489Z,1.77
2022-08-09T19:58:16.026Z,2.40
2022-08-09T20:00:46.782Z,1.70
2022-08-09T20:04:10.150Z,1.37
2022-08-09T20:06:10.354Z,1.50
2022-08-09T20:08:52.141Z,1.60
2022-08-09T20:11:26.233Z,1.87
2022-08-09T20:13:56.818Z,2.50
2022-08-09T20:16:34.221Z,2.37
2022-08-09T20:19:48.232Z,1.77
2022-08-09T20:22:00.023Z,1.60
2022-08-09T20:24:33.694Z,2.00
2022-08-09T20:27:07.989Z,1.80
2022-08-09T20:29:39.645Z,1.73
2022-08-09T20:32:30.972Z,1.40
2022-08-09T20:34:58.112Z,1.57
2022-08-09T20:38:18.992Z,1.90
2022-08-09T20:40:27.356Z,1.70
2022-08-09T20:43:12.275Z,2.27
2022-08-09T20:45:59.837Z,2.37
2022-08-09T20:48:31.840Z,2.83
2022-08-09T20:51:01.214Z,2.43
2022-08-09T20:53:37.477Z,1.67
2022-08-09T20:56:21.021Z,2.93
2022-08-09T20:58:57.898Z,1.67
2022-08-09T21:01:34.321Z,1.80
2022-08-09T21:05:53.628Z,1.57
2022-08-09T21:07:11.695Z,1.53
2022-08-09T21:09:45.751Z,1.47
2022-08-09T21:12:32.238Z,1.60
2022-08-09T21:15:13.742Z,1.70
2022-08-09T21:18:23.094Z,1.73
2022-08-09T21:20:35.545Z,1.70
2022-08-09T21:23:04.737Z,1.60
2022-08-09T21:25:59.196Z,1.50
2022-08-09T21:28:35.152Z,1.60
2022-08-09T21:31:17.322Z,1.50
2022-08-09T21:33:52.130Z,1.50
2022-08-09T21:36:23.846Z,1.50
2022-08-09T21:38:57.912Z,1.30
2022-08-09T21:42:05.076Z,1.40
2022-08-09T21:44:34.427Z,2.07
2022-08-09T21:47:07.806Z,1.60
2022-08-09T21:49:43.075Z,1.60
2022-08-09T21:52:17.540Z,1.70
2022-08-09T21:54:59.244Z,1.70
2022-08-09T21:57:39.385Z,1.43
2022-08-09T22:00:26.865Z,1.47
2022-08-09T22:03:05.795Z,1.70
2022-08-09T22:05:42.320Z,1.57
2022-08-09T22:08:14.816Z,1.70
2022-08-09T22:11:49.138Z,1.60
2022-08-09T22:13:38.086Z,1.73
2022-08-09T22:16:09.222Z,1.97
2022-08-09T22:18:53.481Z,1.80
2022-08-09T22:21:45.011Z,2.00
2022-08-09T22:24:21.133Z,2.00
2022-08-09T22:26:53.300Z,1.80
2022-08-09T22:29:28.953Z,1.70
2022-08-09T22:32:29.183Z,1.80
2022-08-09T22:35:02.364Z,1.90
2022-08-09T22:37:40.284Z,2.00
2022-08-09T22:40:20.048Z,2.10
2022-08-09T22:42:49.093Z,2.00
2022-08-09T22:48:15.362Z,1.90
2022-08-09T22:48:19.239Z,1.63
2022-08-09T22:50:54.950Z,1.60
2022-08-09T22:53:25.185Z,1.73
2022-08-09T22:56:31.369Z,1.93
2022-08-09T22:58:50.658Z,2.13
2022-08-09T23:01:19.136Z,2.00
2022-08-09T23:04:04.065Z,2.17
2022-08-09T23:06:49.334Z,2.00
2022-08-09T23:09:19.224Z,1.93
2022-08-09T23:11:47.638Z,2.27
2022-08-09T23:14:17.692Z,1.97
2022-08-09T23:17:05.730Z,1.70
2022-08-09T23:20:00.926Z,1.90
2022-08-09T23:22:22.455Z,2.10
2022-08-09T23:24:52.313Z,1.87
2022-08-09T23:27:20.699Z,1.80
2022-08-09T23:29:49.031Z,2.00
2022-08-09T23:32:17.776Z,2.20
2022-08-09T23:34:46.168Z,1.63
2022-08-09T23:37:14.619Z,1.80
2022-08-09T23:39:46.215Z,1.90
2022-08-09T23:42:15.995Z,2.13
2022-08-09T23:44:44.321Z,2.00
2022-08-09T23:47:12.663Z,1.97
2022-08-09T23:49:41.082Z,1.70
2022-08-09T23:52:09.511Z,1.93
2022-08-09T23:54:39.746Z,2.07
2022-08-09T23:57:12.921Z,1.73
